sensor_id;sensor_type;location;lat;lon;timestamp;P1;durP1;ratioP1;P2;durP2;ratioP2
12896;SDS011;6516;35.028;32.372;2023-11-19T00:00:52;10.40;;;1.40;;
12896;SDS011;6516;35.028;32.372;2023-11-19T00:03:20;11.95;;;1.33;;
12896;SDS011;6516;35.028;32.372;2023-11-19T00:05:47;12.20;;;1.52;;
12896;SDS011;6516;35.028;32.372;2023-11-19T00:08:15;10.17;;;1.63;;
12896;SDS011;6516;35.028;32.372;2023-11-19T00:10:45;10.60;;;2.05;;
12896;SDS011;6516;35.028;32.372;2023-11-19T00:13:13;11.00;;;2.20;;
12896;SDS011;6516;35.028;32.372;2023-11-19T00:15:41;10.20;;;1.45;;
12896;SDS011;6516;35.028;32.372;2023-11-19T00:18:10;8.30;;;1.40;;
12896;SDS011;6516;35.028;32.372;2023-11-19T00:20:39;8.90;;;1.37;;
12896;SDS011;6516;35.028;32.372;2023-11-19T00:23:10;8.40;;;1.35;;
12896;SDS011;6516;35.028;32.372;2023-11-19T00:25:37;13.88;;;1.60;;
12896;SDS011;6516;35.028;32.372;2023-11-19T00:28:06;13.20;;;1.60;;
12896;SDS011;6516;35.028;32.372;2023-11-19T00:30:34;11.70;;;1.55;;
12896;SDS011;6516;35.028;32.372;2023-11-19T00:33:02;11.73;;;1.83;;
12896;SDS011;6516;35.028;32.372;2023-11-19T00:35:30;11.45;;;1.63;;
12896;SDS011;6516;35.028;32.372;2023-11-19T00:37:58;14.63;;;2.17;;
12896;SDS011;6516;35.028;32.372;2023-11-19T00:40:26;11.10;;;1.75;;
12896;SDS011;6516;35.028;32.372;2023-11-19T00:42:53;9.98;;;1.70;;
12896;SDS011;6516;35.028;32.372;2023-11-19T00:45:23;9.67;;;2.00;;
12896;SDS011;6516;35.028;32.372;2023-11-19T00:47:51;11.38;;;1.38;;
12896;SDS011;6516;35.028;32.372;2023-11-19T00:50:18;11.63;;;1.80;;
12896;SDS011;6516;35.028;32.372;2023-11-19T00:52:46;10.23;;;1.60;;
12896;SDS011;6516;35.028;32.372;2023-11-19T00:55:14;12.13;;;1.60;;
12896;SDS011;6516;35.028;32.372;2023-11-19T00:57:42;16.87;;;1.60;;
12896;SDS011;6516;35.028;32.372;2023-11-19T01:00:10;10.95;;;2.10;;
12896;SDS011;6516;35.028;32.372;2023-11-19T01:02:44;13.52;;;2.42;;
12896;SDS011;6516;35.028;32.372;2023-11-19T01:05:14;11.27;;;1.77;;
12896;SDS011;6516;35.028;32.372;2023-11-19T01:07:45;15.90;;;2.38;;
12896;SDS011;6516;35.028;32.372;2023-11-19T01:10:13;10.10;;;1.67;;
12896;SDS011;6516;35.028;32.372;2023-11-19T01:12:42;12.35;;;1.98;;
12896;SDS011;6516;35.028;32.372;2023-11-19T01:15:09;10.70;;;2.00;;
12896;SDS011;6516;35.028;32.372;2023-11-19T01:17:38;8.48;;;1.38;;
12896;SDS011;6516;35.028;32.372;2023-11-19T01:20:08;9.23;;;2.00;;
12896;SDS011;6516;35.028;32.372;2023-11-19T01:22:38;10.83;;;1.40;;
12896;SDS011;6516;35.028;32.372;2023-11-19T01:25:06;7.82;;;1.17;;
12896;SDS011;6516;35.028;32.372;2023-11-19T01:27:34;11.35;;;1.40;;
12896;SDS011;6516;35.028;32.372;2023-11-19T01:30:02;6.93;;;1.40;;
12896;SDS011;6516;35.028;32.372;2023-11-19T01:32:31;8.55;;;1.40;;
12896;SDS011;6516;35.028;32.372;2023-11-19T01:34:59;9.10;;;1.67;;
12896;SDS011;6516;35.028;32.372;2023-11-19T01:37:29;9.63;;;1.45;;
12896;SDS011;6516;35.028;32.372;2023-11-19T01:39:57;10.90;;;1.60;;
12896;SDS011;6516;35.028;32.372;2023-11-19T01:42:25;9.20;;;1.85;;
12896;SDS011;6516;35.028;32.372;2023-11-19T01:44:59;9.85;;;2.22;;
12896;SDS011;6516;35.028;32.372;2023-11-19T01:47:28;6.27;;;1.10;;
12896;SDS011;6516;35.028;32.372;2023-11-19T01:49:57;9.88;;;1.33;;
12896;SDS011;6516;35.028;32.372;2023-11-19T01:52:26;6.60;;;1.58;;
12896;SDS011;6516;35.028;32.372;2023-11-19T01:54:56;10.48;;;1.58;;
12896;SDS011;6516;35.028;32.372;2023-11-19T01:57:24;11.52;;;1.90;;
12896;SDS011;6516;35.028;32.372;2023-11-19T01:59:52;13.17;;;2.03;;
12896;SDS011;6516;35.028;32.372;2023-11-19T02:02:21;10.57;;;2.13;;
12896;SDS011;6516;35.028;32.372;2023-11-19T02:04:49;9.70;;;1.70;;
12896;SDS011;6516;35.028;32.372;2023-11-19T02:07:17;11.63;;;1.65;;
12896;SDS011;6516;35.028;32.372;2023-11-19T02:09:47;11.02;;;1.70;;
12896;SDS011;6516;35.028;32.372;2023-11-19T02:12:15;9.43;;;1.80;;
12896;SDS011;6516;35.028;32.372;2023-11-19T02:14:42;7.57;;;1.65;;
12896;SDS011;6516;35.028;32.372;2023-11-19T02:17:24;9.55;;;1.50;;
12896;SDS011;6516;35.028;32.372;2023-11-19T02:19:53;17.17;;;1.90;;
12896;SDS011;6516;35.028;32.372;2023-11-19T02:22:21;9.77;;;1.70;;
12896;SDS011;6516;35.028;32.372;2023-11-19T02:24:51;9.10;;;1.80;;
12896;SDS011;6516;35.028;32.372;2023-11-19T02:27:26;8.88;;;1.50;;
12896;SDS011;6516;35.028;32.372;2023-11-19T02:30:05;5.80;;;1.38;;
12896;SDS011;6516;35.028;32.372;2023-11-19T02:32:35;13.38;;;1.63;;
12896;SDS011;6516;35.028;32.372;2023-11-19T02:35:05;6.95;;;1.30;;
12896;SDS011;6516;35.028;32.372;2023-11-19T02:37:34;9.60;;;1.57;;
12896;SDS011;6516;35.028;32.372;2023-11-19T02:40:02;7.93;;;1.55;;
12896;SDS011;6516;35.028;32.372;2023-11-19T02:42:33;7.53;;;1.52;;
12896;SDS011;6516;35.028;32.372;2023-11-19T02:45:03;11.85;;;1.83;;
12896;SDS011;6516;35.028;32.372;2023-11-19T02:47:32;9.70;;;1.75;;
12896;SDS011;6516;35.028;32.372;2023-11-19T02:50:01;9.80;;;2.00;;
12896;SDS011;6516;35.028;32.372;2023-11-19T02:52:32;10.88;;;1.65;;
12896;SDS011;6516;35.028;32.372;2023-11-19T02:55:03;6.85;;;1.38;;
12896;SDS011;6516;35.028;32.372;2023-11-19T02:57:35;6.88;;;1.40;;
12896;SDS011;6516;35.028;32.372;2023-11-19T03:00:05;12.15;;;1.92;;
12896;SDS011;6516;35.028;32.372;2023-11-19T03:02:38;9.90;;;1.40;;
12896;SDS011;6516;35.028;32.372;2023-11-19T03:05:11;6.28;;;1.38;;
12896;SDS011;6516;35.028;32.372;2023-11-19T03:07:40;9.93;;;1.35;;
12896;SDS011;6516;35.028;32.372;2023-11-19T03:10:11;7.18;;;1.42;;
12896;SDS011;6516;35.028;32.372;2023-11-19T03:12:40;5.00;;;1.10;;
12896;SDS011;6516;35.028;32.372;2023-11-19T03:15:09;7.47;;;1.00;;
12896;SDS011;6516;35.028;32.372;2023-11-19T03:17:38;4.45;;;1.00;;
12896;SDS011;6516;35.028;32.372;2023-11-19T03:20:06;6.65;;;1.20;;
12896;SDS011;6516;35.028;32.372;2023-11-19T03:22:40;7.55;;;1.17;;
12896;SDS011;6516;35.028;32.372;2023-11-19T03:25:09;6.60;;;1.27;;
12896;SDS011;6516;35.028;32.372;2023-11-19T03:27:38;9.07;;;1.70;;
12896;SDS011;6516;35.028;32.372;2023-11-19T03:30:07;8.27;;;1.38;;
12896;SDS011;6516;35.028;32.372;2023-11-19T03:32:37;6.75;;;1.38;;
12896;SDS011;6516;35.028;32.372;2023-11-19T03:35:06;8.18;;;1.20;;
12896;SDS011;6516;35.028;32.372;2023-11-19T03:37:34;10.85;;;1.20;;
12896;SDS011;6516;35.028;32.372;2023-11-19T03:40:02;8.70;;;1.40;;
12896;SDS011;6516;35.028;32.372;2023-11-19T03:42:31;7.53;;;1.73;;
12896;SDS011;6516;35.028;32.372;2023-11-19T03:44:59;9.65;;;1.30;;
12896;SDS011;6516;35.028;32.372;2023-11-19T03:47:30;6.90;;;1.33;;
12896;SDS011;6516;35.028;32.372;2023-11-19T03:49:58;6.88;;;1.10;;
12896;SDS011;6516;35.028;32.372;2023-11-19T03:52:25;7.03;;;1.20;;
12896;SDS011;6516;35.028;32.372;2023-11-19T03:54:53;5.82;;;1.17;;
12896;SDS011;6516;35.028;32.372;2023-11-19T03:57:22;7.07;;;1.30;;
12896;SDS011;6516;35.028;32.372;2023-11-19T03:59:49;5.95;;;1.33;;
12896;SDS011;6516;35.028;32.372;2023-11-19T04:02:17;6.28;;;1.30;;
12896;SDS011;6516;35.028;32.372;2023-11-19T04:04:47;7.50;;;1.37;;
12896;SDS011;6516;35.028;32.372;2023-11-19T04:07:14;5.95;;;1.60;;
12896;SDS011;6516;35.028;32.372;2023-11-19T04:09:42;7.40;;;1.13;;
12896;SDS011;6516;35.028;32.372;2023-11-19T04:12:12;8.52;;;2.05;;
12896;SDS011;6516;35.028;32.372;2023-11-19T04:14:42;5.72;;;1.30;;
12896;SDS011;6516;35.028;32.372;2023-11-19T04:17:09;6.47;;;1.27;;
12896;SDS011;6516;35.028;32.372;2023-11-19T04:19:37;13.25;;;2.03;;
12896;SDS011;6516;35.028;32.372;2023-11-19T04:22:08;6.18;;;1.20;;
12896;SDS011;6516;35.028;32.372;2023-11-19T04:24:36;7.72;;;1.30;;
12896;SDS011;6516;35.028;32.372;2023-11-19T04:27:04;6.97;;;1.13;;
12896;SDS011;6516;35.028;32.372;2023-11-19T04:29:32;8.63;;;1.80;;
12896;SDS011;6516;35.028;32.372;2023-11-19T04:31:59;6.13;;;1.30;;
12896;SDS011;6516;35.028;32.372;2023-11-19T04:34:27;6.72;;;1.33;;
12896;SDS011;6516;35.028;32.372;2023-11-19T04:36:55;6.20;;;1.45;;
12896;SDS011;6516;35.028;32.372;2023-11-19T04:39:24;7.05;;;1.58;;
12896;SDS011;6516;35.028;32.372;2023-11-19T04:41:52;5.30;;;1.40;;
12896;SDS011;6516;35.028;32.372;2023-11-19T04:44:26;7.32;;;1.40;;
12896;SDS011;6516;35.028;32.372;2023-11-19T04:46:54;7.50;;;1.10;;
12896;SDS011;6516;35.028;32.372;2023-11-19T04:49:22;8.98;;;1.60;;
12896;SDS011;6516;35.028;32.372;2023-11-19T04:51:52;8.88;;;1.33;;
12896;SDS011;6516;35.028;32.372;2023-11-19T04:54:20;6.50;;;1.03;;
12896;SDS011;6516;35.028;32.372;2023-11-19T04:56:49;9.13;;;1.27;;
12896;SDS011;6516;35.028;32.372;2023-11-19T04:59:17;6.15;;;1.23;;
12896;SDS011;6516;35.028;32.372;2023-11-19T05:01:46;6.72;;;1.40;;
12896;SDS011;6516;35.028;32.372;2023-11-19T05:04:14;7.20;;;1.30;;
12896;SDS011;6516;35.028;32.372;2023-11-19T05:06:44;9.37;;;1.57;;
12896;SDS011;6516;35.028;32.372;2023-11-19T05:09:11;10.25;;;1.50;;
12896;SDS011;6516;35.028;32.372;2023-11-19T05:11:39;6.90;;;1.20;;
12896;SDS011;6516;35.028;32.372;2023-11-19T05:14:08;7.55;;;1.42;;
12896;SDS011;6516;35.028;32.372;2023-11-19T05:16:37;6.45;;;1.00;;
12896;SDS011;6516;35.028;32.372;2023-11-19T05:19:06;7.20;;;1.50;;
12896;SDS011;6516;35.028;32.372;2023-11-19T05:21:34;7.05;;;1.70;;
12896;SDS011;6516;35.028;32.372;2023-11-19T05:24:02;5.45;;;1.10;;
12896;SDS011;6516;35.028;32.372;2023-11-19T05:26:31;5.28;;;1.25;;
12896;SDS011;6516;35.028;32.372;2023-11-19T05:28:58;5.70;;;1.00;;
12896;SDS011;6516;35.028;32.372;2023-11-19T05:31:27;9.60;;;1.13;;
12896;SDS011;6516;35.028;32.372;2023-11-19T05:33:55;10.50;;;1.42;;
12896;SDS011;6516;35.028;32.372;2023-11-19T05:36:23;9.05;;;1.20;;
12896;SDS011;6516;35.028;32.372;2023-11-19T05:38:51;7.47;;;1.20;;
12896;SDS011;6516;35.028;32.372;2023-11-19T05:41:19;6.13;;;1.23;;
12896;SDS011;6516;35.028;32.372;2023-11-19T05:43:46;7.63;;;1.30;;
12896;SDS011;6516;35.028;32.372;2023-11-19T05:46:14;8.95;;;1.58;;
12896;SDS011;6516;35.028;32.372;2023-11-19T05:48:43;7.82;;;1.30;;
12896;SDS011;6516;35.028;32.372;2023-11-19T05:51:12;5.97;;;1.20;;
12896;SDS011;6516;35.028;32.372;2023-11-19T05:53:40;6.13;;;1.23;;
12896;SDS011;6516;35.028;32.372;2023-11-19T05:56:08;9.07;;;1.73;;
12896;SDS011;6516;35.028;32.372;2023-11-19T05:58:36;8.63;;;1.30;;
12896;SDS011;6516;35.028;32.372;2023-11-19T06:01:06;7.35;;;1.30;;
12896;SDS011;6516;35.028;32.372;2023-11-19T06:03:34;7.00;;;1.65;;
12896;SDS011;6516;35.028;32.372;2023-11-19T06:06:03;7.43;;;1.42;;
12896;SDS011;6516;35.028;32.372;2023-11-19T06:08:32;9.43;;;1.40;;
12896;SDS011;6516;35.028;32.372;2023-11-19T06:10:59;8.40;;;1.60;;
12896;SDS011;6516;35.028;32.372;2023-11-19T06:13:27;6.40;;;1.35;;
12896;SDS011;6516;35.028;32.372;2023-11-19T06:15:56;8.55;;;1.20;;
12896;SDS011;6516;35.028;32.372;2023-11-19T06:18:24;5.80;;;1.17;;
12896;SDS011;6516;35.028;32.372;2023-11-19T06:20:52;6.77;;;1.20;;
12896;SDS011;6516;35.028;32.372;2023-11-19T06:23:22;7.55;;;1.10;;
12896;SDS011;6516;35.028;32.372;2023-11-19T06:25:49;6.32;;;1.27;;
12896;SDS011;6516;35.028;32.372;2023-11-19T06:28:17;3.88;;;1.00;;
12896;SDS011;6516;35.028;32.372;2023-11-19T06:30:45;6.43;;;1.17;;
12896;SDS011;6516;35.028;32.372;2023-11-19T06:33:13;7.47;;;1.30;;
12896;SDS011;6516;35.028;32.372;2023-11-19T06:35:41;4.85;;;0.93;;
12896;SDS011;6516;35.028;32.372;2023-11-19T06:38:09;7.47;;;1.17;;
12896;SDS011;6516;35.028;32.372;2023-11-19T06:40:38;9.13;;;1.20;;
12896;SDS011;6516;35.028;32.372;2023-11-19T06:43:06;6.25;;;1.20;;
12896;SDS011;6516;35.028;32.372;2023-11-19T06:45:35;6.00;;;1.30;;
12896;SDS011;6516;35.028;32.372;2023-11-19T06:48:03;7.07;;;1.50;;
12896;SDS011;6516;35.028;32.372;2023-11-19T06:50:31;6.45;;;1.00;;
12896;SDS011;6516;35.028;32.372;2023-11-19T06:52:59;5.10;;;0.90;;
12896;SDS011;6516;35.028;32.372;2023-11-19T06:55:27;8.02;;;1.45;;
12896;SDS011;6516;35.028;32.372;2023-11-19T06:57:59;5.27;;;1.00;;
12896;SDS011;6516;35.028;32.372;2023-11-19T07:00:29;4.05;;;0.88;;
12896;SDS011;6516;35.028;32.372;2023-11-19T07:02:58;7.85;;;1.45;;
12896;SDS011;6516;35.028;32.372;2023-11-19T07:05:26;9.30;;;1.25;;
12896;SDS011;6516;35.028;32.372;2023-11-19T07:07:53;10.05;;;1.23;;
12896;SDS011;6516;35.028;32.372;2023-11-19T07:10:21;6.40;;;1.03;;
12896;SDS011;6516;35.028;32.372;2023-11-19T07:12:49;7.70;;;1.13;;
12896;SDS011;6516;35.028;32.372;2023-11-19T07:15:21;8.02;;;1.30;;
12896;SDS011;6516;35.028;32.372;2023-11-19T07:17:48;5.88;;;1.10;;
12896;SDS011;6516;35.028;32.372;2023-11-19T07:20:16;6.45;;;1.27;;
12896;SDS011;6516;35.028;32.372;2023-11-19T07:22:44;5.57;;;1.10;;
12896;SDS011;6516;35.028;32.372;2023-11-19T07:25:12;5.82;;;1.00;;
12896;SDS011;6516;35.028;32.372;2023-11-19T07:27:40;8.27;;;1.08;;
12896;SDS011;6516;35.028;32.372;2023-11-19T07:30:08;6.80;;;1.10;;
12896;SDS011;6516;35.028;32.372;2023-11-19T07:32:38;5.05;;;1.05;;
12896;SDS011;6516;35.028;32.372;2023-11-19T07:35:06;6.43;;;1.10;;
12896;SDS011;6516;35.028;32.372;2023-11-19T07:37:34;6.45;;;1.23;;
12896;SDS011;6516;35.028;32.372;2023-11-19T07:40:02;5.20;;;0.90;;
12896;SDS011;6516;35.028;32.372;2023-11-19T07:42:31;5.95;;;1.00;;
12896;SDS011;6516;35.028;32.372;2023-11-19T07:44:59;5.10;;;0.80;;
12896;SDS011;6516;35.028;32.372;2023-11-19T07:47:27;7.93;;;0.83;;
12896;SDS011;6516;35.028;32.372;2023-11-19T07:49:56;5.38;;;0.88;;
12896;SDS011;6516;35.028;32.372;2023-11-19T07:52:24;6.70;;;1.00;;
12896;SDS011;6516;35.028;32.372;2023-11-19T07:54:51;5.53;;;1.10;;
12896;SDS011;6516;35.028;32.372;2023-11-19T07:57:19;5.88;;;1.10;;
12896;SDS011;6516;35.028;32.372;2023-11-19T07:59:49;7.43;;;1.30;;
12896;SDS011;6516;35.028;32.372;2023-11-19T08:02:17;6.07;;;1.13;;
12896;SDS011;6516;35.028;32.372;2023-11-19T08:04:45;8.25;;;1.30;;
12896;SDS011;6516;35.028;32.372;2023-11-19T08:07:17;7.68;;;1.27;;
12896;SDS011;6516;35.028;32.372;2023-11-19T08:09:45;8.10;;;1.17;;
12896;SDS011;6516;35.028;32.372;2023-11-19T08:12:13;5.60;;;1.00;;
12896;SDS011;6516;35.028;32.372;2023-11-19T08:14:42;6.35;;;1.45;;
12896;SDS011;6516;35.028;32.372;2023-11-19T08:17:10;6.38;;;1.00;;
12896;SDS011;6516;35.028;32.372;2023-11-19T08:19:38;6.45;;;1.05;;
12896;SDS011;6516;35.028;32.372;2023-11-19T08:22:06;7.70;;;1.13;;
12896;SDS011;6516;35.028;32.372;2023-11-19T08:24:36;7.27;;;1.10;;
12896;SDS011;6516;35.028;32.372;2023-11-19T08:27:04;4.43;;;1.10;;
12896;SDS011;6516;35.028;32.372;2023-11-19T08:29:32;5.72;;;1.10;;
12896;SDS011;6516;35.028;32.372;2023-11-19T08:32:00;5.85;;;0.95;;
12896;SDS011;6516;35.028;32.372;2023-11-19T08:34:28;6.72;;;1.15;;
12896;SDS011;6516;35.028;32.372;2023-11-19T08:36:56;5.83;;;1.00;;
12896;SDS011;6516;35.028;32.372;2023-11-19T08:39:24;6.10;;;1.10;;
12896;SDS011;6516;35.028;32.372;2023-11-19T08:41:53;5.30;;;1.10;;
12896;SDS011;6516;35.028;32.372;2023-11-19T08:44:22;6.20;;;1.10;;
12896;SDS011;6516;35.028;32.372;2023-11-19T08:46:50;5.03;;;1.20;;
12896;SDS011;6516;35.028;32.372;2023-11-19T08:49:18;7.10;;;1.20;;
12896;SDS011;6516;35.028;32.372;2023-11-19T08:51:46;4.85;;;0.90;;
12896;SDS011;6516;35.028;32.372;2023-11-19T08:54:13;5.00;;;1.10;;
12896;SDS011;6516;35.028;32.372;2023-11-19T08:56:41;5.72;;;1.10;;
12896;SDS011;6516;35.028;32.372;2023-11-19T08:59:10;5.65;;;1.40;;
12896;SDS011;6516;35.028;32.372;2023-11-19T09:01:38;4.63;;;0.87;;
12896;SDS011;6516;35.028;32.372;2023-11-19T09:04:06;4.35;;;1.15;;
12896;SDS011;6516;35.028;32.372;2023-11-19T09:06:35;6.40;;;0.93;;
12896;SDS011;6516;35.028;32.372;2023-11-19T09:09:03;5.65;;;1.00;;
12896;SDS011;6516;35.028;32.372;2023-11-19T09:11:31;5.53;;;1.15;;
12896;SDS011;6516;35.028;32.372;2023-11-19T09:13:58;5.67;;;1.00;;
12896;SDS011;6516;35.028;32.372;2023-11-19T09:16:28;3.88;;;0.90;;
12896;SDS011;6516;35.028;32.372;2023-11-19T09:18:55;7.57;;;1.00;;
12896;SDS011;6516;35.028;32.372;2023-11-19T09:21:24;5.57;;;1.00;;
12896;SDS011;6516;35.028;32.372;2023-11-19T09:23:52;5.85;;;1.13;;
12896;SDS011;6516;35.028;32.372;2023-11-19T09:26:20;6.50;;;1.27;;
12896;SDS011;6516;35.028;32.372;2023-11-19T09:28:47;5.55;;;1.00;;
12896;SDS011;6516;35.028;32.372;2023-11-19T09:31:15;6.68;;;1.10;;
12896;SDS011;6516;35.028;32.372;2023-11-19T09:33:46;6.85;;;1.20;;
12896;SDS011;6516;35.028;32.372;2023-11-19T09:36:13;7.43;;;1.13;;
12896;SDS011;6516;35.028;32.372;2023-11-19T09:38:42;5.57;;;1.13;;
12896;SDS011;6516;35.028;32.372;2023-11-19T09:41:10;5.72;;;1.00;;
12896;SDS011;6516;35.028;32.372;2023-11-19T09:43:39;5.80;;;1.17;;
12896;SDS011;6516;35.028;32.372;2023-11-19T09:46:09;5.10;;;1.27;;
12896;SDS011;6516;35.028;32.372;2023-11-19T09:48:37;4.68;;;1.10;;
12896;SDS011;6516;35.028;32.372;2023-11-19T09:51:07;4.63;;;1.00;;
12896;SDS011;6516;35.028;32.372;2023-11-19T09:53:36;6.95;;;1.60;;
12896;SDS011;6516;35.028;32.372;2023-11-19T09:56:05;6.20;;;1.00;;
12896;SDS011;6516;35.028;32.372;2023-11-19T09:58:34;5.82;;;1.17;;
12896;SDS011;6516;35.028;32.372;2023-11-19T10:01:02;5.85;;;1.10;;
12896;SDS011;6516;35.028;32.372;2023-11-19T10:03:34;6.20;;;1.37;;
12896;SDS011;6516;35.028;32.372;2023-11-19T10:06:07;7.00;;;1.50;;
12896;SDS011;6516;35.028;32.372;2023-11-19T10:08:36;5.55;;;1.92;;
12896;SDS011;6516;35.028;32.372;2023-11-19T10:11:05;8.25;;;2.83;;
12896;SDS011;6516;35.028;32.372;2023-11-19T10:13:34;5.22;;;1.80;;
12896;SDS011;6516;35.028;32.372;2023-11-19T10:16:06;8.47;;;1.90;;
12896;SDS011;6516;35.028;32.372;2023-11-19T10:18:36;6.93;;;2.00;;
12896;SDS011;6516;35.028;32.372;2023-11-19T10:21:07;6.32;;;1.45;;
12896;SDS011;6516;35.028;32.372;2023-11-19T10:23:47;8.00;;;2.05;;
12896;SDS011;6516;35.028;32.372;2023-11-19T10:26:19;6.25;;;1.98;;
12896;SDS011;6516;35.028;32.372;2023-11-19T10:28:48;5.57;;;1.40;;
12896;SDS011;6516;35.028;32.372;2023-11-19T10:31:16;5.85;;;2.50;;
12896;SDS011;6516;35.028;32.372;2023-11-19T10:33:50;6.85;;;2.20;;
12896;SDS011;6516;35.028;32.372;2023-11-19T10:36:19;6.70;;;1.60;;
12896;SDS011;6516;35.028;32.372;2023-11-19T10:38:52;5.60;;;1.60;;
12896;SDS011;6516;35.028;32.372;2023-11-19T10:41:27;8.50;;;1.73;;
12896;SDS011;6516;35.028;32.372;2023-11-19T10:43:55;5.63;;;1.92;;
12896;SDS011;6516;35.028;32.372;2023-11-19T10:46:23;5.35;;;1.70;;
12896;SDS011;6516;35.028;32.372;2023-11-19T10:49:05;4.25;;;1.15;;
12896;SDS011;6516;35.028;32.372;2023-11-19T10:51:34;5.43;;;1.48;;
12896;SDS011;6516;35.028;32.372;2023-11-19T10:54:03;3.80;;;0.90;;
12896;SDS011;6516;35.028;32.372;2023-11-19T10:56:33;7.85;;;2.80;;
12896;SDS011;6516;35.028;32.372;2023-11-19T10:59:01;7.03;;;2.40;;
12896;SDS011;6516;35.028;32.372;2023-11-19T11:01:32;8.75;;;2.15;;
12896;SDS011;6516;35.028;32.372;2023-11-19T11:04:07;6.90;;;2.50;;
12896;SDS011;6516;35.028;32.372;2023-11-19T11:06:43;6.43;;;2.50;;
12896;SDS011;6516;35.028;32.372;2023-11-19T11:09:12;7.30;;;2.80;;
12896;SDS011;6516;35.028;32.372;2023-11-19T11:11:42;4.20;;;1.30;;
12896;SDS011;6516;35.028;32.372;2023-11-19T11:14:14;6.93;;;1.33;;
12896;SDS011;6516;35.028;32.372;2023-11-19T11:16:46;4.68;;;1.40;;
12896;SDS011;6516;35.028;32.372;2023-11-19T11:19:15;3.97;;;1.20;;
12896;SDS011;6516;35.028;32.372;2023-11-19T11:21:49;3.53;;;1.00;;
12896;SDS011;6516;35.028;32.372;2023-11-19T11:24:27;3.45;;;0.90;;
12896;SDS011;6516;35.028;32.372;2023-11-19T11:27:28;3.25;;;0.82;;
12896;SDS011;6516;35.028;32.372;2023-11-19T11:30:19;5.72;;;0.90;;
12896;SDS011;6516;35.028;32.372;2023-11-19T11:33:02;3.63;;;0.90;;
12896;SDS011;6516;35.028;32.372;2023-11-19T11:35:49;3.50;;;1.00;;
12896;SDS011;6516;35.028;32.372;2023-11-19T11:38:32;2.85;;;1.00;;
12896;SDS011;6516;35.028;32.372;2023-11-19T11:41:17;4.35;;;1.20;;
12896;SDS011;6516;35.028;32.372;2023-11-19T11:43:46;5.85;;;1.30;;
12896;SDS011;6516;35.028;32.372;2023-11-19T11:49:27;4.28;;;1.20;;
12896;SDS011;6516;35.028;32.372;2023-11-19T11:52:02;7.10;;;1.30;;
12896;SDS011;6516;35.028;32.372;2023-11-19T11:54:32;5.63;;;1.30;;
12896;SDS011;6516;35.028;32.372;2023-11-19T11:57:01;4.97;;;1.20;;
12896;SDS011;6516;35.028;32.372;2023-11-19T11:59:37;4.10;;;1.30;;
12896;SDS011;6516;35.028;32.372;2023-11-19T12:02:11;4.43;;;1.25;;
12896;SDS011;6516;35.028;32.372;2023-11-19T12:04:41;3.60;;;1.20;;
12896;SDS011;6516;35.028;32.372;2023-11-19T12:07:12;4.97;;;1.30;;
12896;SDS011;6516;35.028;32.372;2023-11-19T12:09:43;3.70;;;1.00;;
12896;SDS011;6516;35.028;32.372;2023-11-19T12:12:19;3.57;;;0.80;;
12896;SDS011;6516;35.028;32.372;2023-11-19T12:15:00;4.95;;;1.10;;
12896;SDS011;6516;35.028;32.372;2023-11-19T12:17:40;3.08;;;0.95;;
12896;SDS011;6516;35.028;32.372;2023-11-19T12:20:11;3.55;;;1.00;;
12896;SDS011;6516;35.028;32.372;2023-11-19T12:22:39;5.68;;;1.35;;
12896;SDS011;6516;35.028;32.372;2023-11-19T12:25:09;4.73;;;1.10;;
12896;SDS011;6516;35.028;32.372;2023-11-19T12:27:39;5.40;;;1.30;;
12896;SDS011;6516;35.028;32.372;2023-11-19T12:30:08;5.97;;;1.50;;
12896;SDS011;6516;35.028;32.372;2023-11-19T12:32:39;7.82;;;1.40;;
12896;SDS011;6516;35.028;32.372;2023-11-19T12:35:08;3.95;;;1.13;;
12896;SDS011;6516;35.028;32.372;2023-11-19T12:37:41;4.17;;;1.40;;
12896;SDS011;6516;35.028;32.372;2023-11-19T12:40:17;5.90;;;1.60;;
12896;SDS011;6516;35.028;32.372;2023-11-19T12:42:46;8.02;;;1.70;;
12896;SDS011;6516;35.028;32.372;2023-11-19T12:45:14;5.15;;;1.60;;
12896;SDS011;6516;35.028;32.372;2023-11-19T12:47:44;7.30;;;1.92;;
12896;SDS011;6516;35.028;32.372;2023-11-19T12:50:14;6.20;;;1.50;;
12896;SDS011;6516;35.028;32.372;2023-11-19T12:52:54;7.35;;;2.05;;
12896;SDS011;6516;35.028;32.372;2023-11-19T12:55:27;6.22;;;1.55;;
12896;SDS011;6516;35.028;32.372;2023-11-19T12:57:57;8.60;;;1.80;;
12896;SDS011;6516;35.028;32.372;2023-11-19T13:00:26;8.43;;;2.05;;
12896;SDS011;6516;35.028;32.372;2023-11-19T13:02:55;8.57;;;2.00;;
12896;SDS011;6516;35.028;32.372;2023-11-19T13:05:24;7.15;;;1.70;;
12896;SDS011;6516;35.028;32.372;2023-11-19T13:08:03;4.72;;;1.70;;
12896;SDS011;6516;35.028;32.372;2023-11-19T13:10:49;6.35;;;1.73;;
12896;SDS011;6516;35.028;32.372;2023-11-19T13:13:19;6.07;;;1.92;;
12896;SDS011;6516;35.028;32.372;2023-11-19T13:15:47;7.03;;;2.10;;
12896;SDS011;6516;35.028;32.372;2023-11-19T13:18:16;8.02;;;2.10;;
12896;SDS011;6516;35.028;32.372;2023-11-19T13:20:46;7.07;;;2.25;;
12896;SDS011;6516;35.028;32.372;2023-11-19T13:23:14;6.80;;;2.10;;
12896;SDS011;6516;35.028;32.372;2023-11-19T13:25:43;5.43;;;2.10;;
12896;SDS011;6516;35.028;32.372;2023-11-19T13:28:12;6.03;;;2.33;;
12896;SDS011;6516;35.028;32.372;2023-11-19T13:30:39;7.20;;;2.15;;
12896;SDS011;6516;35.028;32.372;2023-11-19T13:33:07;7.75;;;2.20;;
12896;SDS011;6516;35.028;32.372;2023-11-19T13:35:37;7.45;;;2.17;;
12896;SDS011;6516;35.028;32.372;2023-11-19T13:38:05;6.80;;;2.30;;
12896;SDS011;6516;35.028;32.372;2023-11-19T13:40:34;5.30;;;2.03;;
12896;SDS011;6516;35.028;32.372;2023-11-19T13:43:03;7.18;;;1.88;;
12896;SDS011;6516;35.028;32.372;2023-11-19T13:45:31;6.45;;;1.60;;
12896;SDS011;6516;35.028;32.372;2023-11-19T13:47:58;5.68;;;1.77;;
12896;SDS011;6516;35.028;32.372;2023-11-19T13:50:26;5.78;;;1.50;;
12896;SDS011;6516;35.028;32.372;2023-11-19T13:52:55;5.57;;;1.83;;
12896;SDS011;6516;35.028;32.372;2023-11-19T13:55:22;7.30;;;1.45;;
12896;SDS011;6516;35.028;32.372;2023-11-19T13:57:51;6.53;;;1.65;;
12896;SDS011;6516;35.028;32.372;2023-11-19T14:00:20;5.75;;;1.55;;
12896;SDS011;6516;35.028;32.372;2023-11-19T14:02:49;5.78;;;1.52;;
12896;SDS011;6516;35.028;32.372;2023-11-19T14:05:17;5.30;;;1.60;;
12896;SDS011;6516;35.028;32.372;2023-11-19T14:07:45;5.20;;;1.63;;
12896;SDS011;6516;35.028;32.372;2023-11-19T14:10:14;5.60;;;1.75;;
12896;SDS011;6516;35.028;32.372;2023-11-19T14:12:42;5.60;;;1.70;;
12896;SDS011;6516;35.028;32.372;2023-11-19T14:15:10;6.65;;;1.83;;
12896;SDS011;6516;35.028;32.372;2023-11-19T14:17:40;6.50;;;1.70;;
12896;SDS011;6516;35.028;32.372;2023-11-19T14:20:08;4.63;;;1.70;;
12896;SDS011;6516;35.028;32.372;2023-11-19T14:22:39;7.65;;;1.73;;
12896;SDS011;6516;35.028;32.372;2023-11-19T14:25:07;5.85;;;1.45;;
12896;SDS011;6516;35.028;32.372;2023-11-19T14:27:36;9.90;;;2.30;;
12896;SDS011;6516;35.028;32.372;2023-11-19T14:30:04;8.03;;;2.00;;
12896;SDS011;6516;35.028;32.372;2023-11-19T14:32:35;7.57;;;1.90;;
12896;SDS011;6516;35.028;32.372;2023-11-19T14:35:05;7.35;;;2.00;;
12896;SDS011;6516;35.028;32.372;2023-11-19T14:37:34;7.55;;;2.10;;
12896;SDS011;6516;35.028;32.372;2023-11-19T14:40:01;10.32;;;2.08;;
12896;SDS011;6516;35.028;32.372;2023-11-19T14:42:31;6.97;;;2.47;;
12896;SDS011;6516;35.028;32.372;2023-11-19T14:44:59;8.02;;;1.75;;
12896;SDS011;6516;35.028;32.372;2023-11-19T14:47:26;6.50;;;1.90;;
12896;SDS011;6516;35.028;32.372;2023-11-19T14:49:54;7.50;;;2.10;;
12896;SDS011;6516;35.028;32.372;2023-11-19T14:52:23;8.68;;;1.90;;
12896;SDS011;6516;35.028;32.372;2023-11-19T14:54:51;7.40;;;1.90;;
12896;SDS011;6516;35.028;32.372;2023-11-19T14:57:21;7.30;;;2.30;;
12896;SDS011;6516;35.028;32.372;2023-11-19T14:59:49;7.95;;;2.08;;
12896;SDS011;6516;35.028;32.372;2023-11-19T15:02:18;8.63;;;1.90;;